sensor_id;sensor_type;location;lat;lon;timestamp;pressure;altitude;pressure_sealevel;temperature;humidity
37972;BME280;23794;48.234;8.344;2023-05-07T00:01:43;94213.97;;;10.08;77.82
37972;BME280;23794;48.234;8.344;2023-05-07T00:04:09;94215.91;;;10.15;78.03
37972;BME280;23794;48.234;8.344;2023-05-07T00:06:37;94210.47;;;10.08;78.73
37972;BME280;23794;48.234;8.344;2023-05-07T00:09:03;94210.88;;;10.10;78.73
37972;BME280;23794;48.234;8.344;2023-05-07T00:11:33;94208.88;;;10.14;78.60
37972;BME280;23794;48.234;8.344;2023-05-07T00:14:02;94217.47;;;10.16;78.83
37972;BME280;23794;48.234;8.344;2023-05-07T00:16:29;94212.41;;;10.07;78.84
37972;BME280;23794;48.234;8.344;2023-05-07T00:18:56;94206.94;;;10.07;78.37
37972;BME280;23794;48.234;8.344;2023-05-07T00:21:24;94206.97;;;10.04;77.90
37972;BME280;23794;48.234;8.344;2023-05-07T00:23:54;94208.16;;;9.99;78.05
37972;BME280;23794;48.234;8.344;2023-05-07T00:26:21;94203.47;;;10.03;77.47
37972;BME280;23794;48.234;8.344;2023-05-07T00:28:50;94199.19;;;9.99;77.93
37972;BME280;23794;48.234;8.344;2023-05-07T00:31:16;94203.84;;;10.05;77.92
37972;BME280;23794;48.234;8.344;2023-05-07T00:33:43;94206.63;;;9.98;77.77
37972;BME280;23794;48.234;8.344;2023-05-07T00:36:10;94200.34;;;9.94;77.40
37972;BME280;23794;48.234;8.344;2023-05-07T00:38:36;94201.50;;;9.97;77.32
37972;BME280;23794;48.234;8.344;2023-05-07T00:41:07;94205.06;;;9.90;78.41
37972;BME280;23794;48.234;8.344;2023-05-07T00:43:38;94201.97;;;9.84;78.78
37972;BME280;23794;48.234;8.344;2023-05-07T00:46:06;94198.81;;;9.89;78.46
37972;BME280;23794;48.234;8.344;2023-05-07T00:48:33;94192.56;;;9.89;78.67
37972;BME280;23794;48.234;8.344;2023-05-07T00:51:00;94201.16;;;9.94;78.39
37972;BME280;23794;48.234;8.344;2023-05-07T00:53:27;94188.63;;;9.97;77.47
37972;BME280;23794;48.234;8.344;2023-05-07T00:55:53;94183.56;;;9.92;78.02
37972;BME280;23794;48.234;8.344;2023-05-07T00:58:21;94183.19;;;9.90;78.53
37972;BME280;23794;48.234;8.344;2023-05-07T01:00:48;94185.94;;;9.83;79.41
37972;BME280;23794;48.234;8.344;2023-05-07T01:03:14;94182.03;;;9.91;78.95
37972;BME280;23794;48.234;8.344;2023-05-07T01:05:42;94183.53;;;9.99;78.68
37972;BME280;23794;48.234;8.344;2023-05-07T01:08:11;94186.28;;;9.92;78.20
37972;BME280;23794;48.234;8.344;2023-05-07T01:10:37;94176.56;;;9.87;78.33
37972;BME280;23794;48.234;8.344;2023-05-07T01:13:10;94192.94;;;9.94;78.22
37972;BME280;23794;48.234;8.344;2023-05-07T01:15:37;94186.31;;;9.88;78.54
37972;BME280;23794;48.234;8.344;2023-05-07T01:18:05;94183.56;;;9.92;78.28
37972;BME280;23794;48.234;8.344;2023-05-07T01:20:34;94178.88;;;9.92;78.85
37972;BME280;23794;48.234;8.344;2023-05-07T01:23:01;94179.28;;;9.91;79.10
37972;BME280;23794;48.234;8.344;2023-05-07T01:25:29;94185.53;;;9.91;78.94
37972;BME280;23794;48.234;8.344;2023-05-07T01:27:59;94183.19;;;9.90;79.17
37972;BME280;23794;48.234;8.344;2023-05-07T01:30:30;94183.22;;;9.86;79.07
37972;BME280;23794;48.234;8.344;2023-05-07T01:33:06;94184.00;;;9.83;79.18
37972;BME280;23794;48.234;8.344;2023-05-07T01:35:38;94173.44;;;9.82;79.28
37972;BME280;23794;48.234;8.344;2023-05-07T01:38:06;94164.06;;;9.86;78.97
37972;BME280;23794;48.234;8.344;2023-05-07T01:40:34;94162.91;;;9.84;79.08
37972;BME280;23794;48.234;8.344;2023-05-07T01:43:02;94160.19;;;9.73;79.15
37972;BME280;23794;48.234;8.344;2023-05-07T01:45:30;94171.13;;;9.73;78.96
37972;BME280;23794;48.234;8.344;2023-05-07T01:47:58;94169.59;;;9.68;79.01
37972;BME280;23794;48.234;8.344;2023-05-07T01:50:25;94175.44;;;9.63;79.19
37972;BME280;23794;48.234;8.344;2023-05-07T01:52:52;94172.38;;;9.57;79.79
37972;BME280;23794;48.234;8.344;2023-05-07T01:55:19;94174.31;;;9.57;79.69
37972;BME280;23794;48.234;8.344;2023-05-07T01:57:46;94176.66;;;9.48;79.81
37972;BME280;23794;48.234;8.344;2023-05-07T02:00:13;94175.09;;;9.50;79.49
37972;BME280;23794;48.234;8.344;2023-05-07T02:02:43;94172.38;;;9.46;79.21
37972;BME280;23794;48.234;8.344;2023-05-07T02:05:21;94159.91;;;9.45;78.99
37972;BME280;23794;48.234;8.344;2023-05-07T02:07:55;94160.28;;;9.37;79.70
37972;BME280;23794;48.234;8.344;2023-05-07T02:10:22;94161.44;;;9.32;80.01
37972;BME280;23794;48.234;8.344;2023-05-07T02:12:48;94166.53;;;9.30;80.20
37972;BME280;23794;48.234;8.344;2023-05-07T02:15:15;94166.16;;;9.28;79.77
37972;BME280;23794;48.234;8.344;2023-05-07T02:18:01;94163.78;;;9.34;79.10
37972;BME280;23794;48.234;8.344;2023-05-07T02:20:28;94165.00;;;9.22;79.72
37972;BME280;23794;48.234;8.344;2023-05-07T02:22:55;94173.19;;;9.18;80.53
37972;BME280;23794;48.234;8.344;2023-05-07T02:25:23;94173.97;;;9.19;80.46
37972;BME280;23794;48.234;8.344;2023-05-07T02:27:50;94174.75;;;9.19;80.84
37972;BME280;23794;48.234;8.344;2023-05-07T02:30:18;94170.06;;;9.20;80.57
37972;BME280;23794;48.234;8.344;2023-05-07T02:32:51;94177.88;;;9.18;80.61
37972;BME280;23794;48.234;8.344;2023-05-07T02:35:18;94176.69;;;9.15;80.49
37972;BME280;23794;48.234;8.344;2023-05-07T02:37:44;94178.66;;;9.18;80.32
37972;BME280;23794;48.234;8.344;2023-05-07T02:40:12;94184.13;;;9.18;79.86
37972;BME280;23794;48.234;8.344;2023-05-07T02:42:39;94179.84;;;9.10;79.95
37972;BME280;23794;48.234;8.344;2023-05-07T02:45:06;94188.03;;;9.10;80.37
37972;BME280;23794;48.234;8.344;2023-05-07T02:47:34;94187.66;;;9.01;80.52
37972;BME280;23794;48.234;8.344;2023-05-07T02:50:03;94186.06;;;8.99;80.71
37972;BME280;23794;48.234;8.344;2023-05-07T02:52:30;94185.31;;;8.99;80.62
37972;BME280;23794;48.234;8.344;2023-05-07T02:54:56;94181.41;;;8.96;80.42
37972;BME280;23794;48.234;8.344;2023-05-07T02:57:23;94184.13;;;9.04;79.78
37972;BME280;23794;48.234;8.344;2023-05-07T02:59:49;94181.78;;;9.02;79.46
37972;BME280;23794;48.234;8.344;2023-05-07T03:02:18;94178.69;;;8.96;80.24
37972;BME280;23794;48.234;8.344;2023-05-07T03:04:46;94174.75;;;9.01;80.06
37972;BME280;23794;48.234;8.344;2023-05-07T03:07:13;94177.50;;;8.94;80.24
37972;BME280;23794;48.234;8.344;2023-05-07T03:09:40;94170.84;;;8.95;79.60
37972;BME280;23794;48.234;8.344;2023-05-07T03:12:07;94169.69;;;8.96;79.58
37972;BME280;23794;48.234;8.344;2023-05-07T03:14:34;94168.53;;;8.86;80.01
37972;BME280;23794;48.234;8.344;2023-05-07T03:17:00;94163.84;;;8.90;80.94
37972;BME280;23794;48.234;8.344;2023-05-07T03:19:27;94166.56;;;8.87;80.84
37972;BME280;23794;48.234;8.344;2023-05-07T03:21:54;94162.66;;;8.80;80.63
37972;BME280;23794;48.234;8.344;2023-05-07T03:24:21;94165.41;;;8.84;80.37
37972;BME280;23794;48.234;8.344;2023-05-07T03:26:48;94158.38;;;8.83;80.33
37972;BME280;23794;48.234;8.344;2023-05-07T03:29:15;94163.06;;;8.79;80.70
37972;BME280;23794;48.234;8.344;2023-05-07T03:31:41;94166.97;;;8.67;81.15
37972;BME280;23794;48.234;8.344;2023-05-07T03:34:08;94167.72;;;8.67;81.01
37972;BME280;23794;48.234;8.344;2023-05-07T03:36:35;94158.78;;;8.67;80.53
37972;BME280;23794;48.234;8.344;2023-05-07T03:39:03;94159.16;;;8.69;80.26
37972;BME280;23794;48.234;8.344;2023-05-07T03:41:37;94165.78;;;8.68;80.53
37972;BME280;23794;48.234;8.344;2023-05-07T03:44:03;94167.72;;;8.64;80.67
37972;BME280;23794;48.234;8.344;2023-05-07T03:46:30;94173.19;;;8.67;80.85
37972;BME280;23794;48.234;8.344;2023-05-07T03:48:57;94179.06;;;8.66;80.82
37972;BME280;23794;48.234;8.344;2023-05-07T03:51:24;94166.97;;;8.63;80.65
37972;BME280;23794;48.234;8.344;2023-05-07T03:53:52;94168.53;;;8.68;80.40
37972;BME280;23794;48.234;8.344;2023-05-07T03:56:24;94174.00;;;8.75;80.03
37972;BME280;23794;48.234;8.344;2023-05-07T03:58:54;94172.81;;;8.65;80.72
37972;BME280;23794;48.234;8.344;2023-05-07T04:01:21;94182.56;;;8.63;80.76
37972;BME280;23794;48.234;8.344;2023-05-07T04:03:48;94179.84;;;8.70;80.08
37972;BME280;23794;48.234;8.344;2023-05-07T04:06:16;94179.84;;;8.70;79.75
37972;BME280;23794;48.234;8.344;2023-05-07T04:08:46;94183.75;;;8.62;81.00
37972;BME280;23794;48.234;8.344;2023-05-07T04:11:13;94184.50;;;8.66;80.83
37972;BME280;23794;48.234;8.344;2023-05-07T04:13:39;94180.22;;;8.61;81.08
37972;BME280;23794;48.234;8.344;2023-05-07T04:16:08;94186.09;;;8.74;80.99
37972;BME280;23794;48.234;8.344;2023-05-07T04:18:37;94189.59;;;8.78;80.70
37972;BME280;23794;48.234;8.344;2023-05-07T04:21:04;94196.25;;;8.81;80.75
37972;BME280;23794;48.234;8.344;2023-05-07T04:23:34;94192.31;;;8.78;80.87
37972;BME280;23794;48.234;8.344;2023-05-07T04:26:03;94196.25;;;8.81;80.74
37972;BME280;23794;48.234;8.344;2023-05-07T04:28:35;94191.53;;;8.81;80.20
37972;BME280;23794;48.234;8.344;2023-05-07T04:31:02;94193.50;;;8.88;79.50
37972;BME280;23794;48.234;8.344;2023-05-07T04:33:31;94184.91;;;8.82;80.60
37972;BME280;23794;48.234;8.344;2023-05-07T04:36:00;94195.84;;;8.90;80.65
37972;BME280;23794;48.234;8.344;2023-05-07T04:38:32;94195.06;;;8.93;80.19
37972;BME280;23794;48.234;8.344;2023-05-07T04:41:04;94194.28;;;8.89;79.20
37972;BME280;23794;48.234;8.344;2023-05-07T04:43:34;94193.88;;;8.90;78.98
37972;BME280;23794;48.234;8.344;2023-05-07T04:46:01;94204.44;;;8.85;78.72
37972;BME280;23794;48.234;8.344;2023-05-07T04:48:29;94200.13;;;8.80;78.58
37972;BME280;23794;48.234;8.344;2023-05-07T04:50:57;94195.84;;;8.79;78.89
37972;BME280;23794;48.234;8.344;2023-05-07T04:53:24;94192.31;;;8.78;79.92
37972;BME280;23794;48.234;8.344;2023-05-07T04:55:56;94195.44;;;8.80;80.28
37972;BME280;23794;48.234;8.344;2023-05-07T04:58:26;94200.91;;;8.88;80.25
37972;BME280;23794;48.234;8.344;2023-05-07T05:00:52;94192.72;;;8.95;80.34
37972;BME280;23794;48.234;8.344;2023-05-07T05:03:19;94204.44;;;9.06;80.08
37972;BME280;23794;48.234;8.344;2023-05-07T05:05:46;94207.56;;;9.15;79.73
37972;BME280;23794;48.234;8.344;2023-05-07T05:08:15;94203.25;;;9.25;79.87
37972;BME280;23794;48.234;8.344;2023-05-07T05:10:42;94208.31;;;9.34;79.66
37972;BME280;23794;48.234;8.344;2023-05-07T05:13:10;94193.06;;;9.44;79.71
37972;BME280;23794;48.234;8.344;2023-05-07T05:15:39;94200.06;;;9.59;80.25
37972;BME280;23794;48.234;8.344;2023-05-07T05:18:06;94198.84;;;9.75;79.41
37972;BME280;23794;48.234;8.344;2023-05-07T05:20:33;94199.19;;;9.95;79.16
37972;BME280;23794;48.234;8.344;2023-05-07T05:23:00;94193.25;;;10.11;78.30
37972;BME280;23794;48.234;8.344;2023-05-07T05:25:30;94197.91;;;10.21;78.10
37972;BME280;23794;48.234;8.344;2023-05-07T05:27:58;94196.25;;;10.35;77.85
37972;BME280;23794;48.234;8.344;2023-05-07T05:30:25;94199.72;;;10.46;77.60
37972;BME280;23794;48.234;8.344;2023-05-07T05:32:51;94201.59;;;10.60;77.69
37972;BME280;23794;48.234;8.344;2023-05-07T05:35:21;94206.19;;;10.78;76.95
37972;BME280;23794;48.234;8.344;2023-05-07T05:37:48;94201.75;;;10.91;76.84
37972;BME280;23794;48.234;8.344;2023-05-07T05:40:16;94200.16;;;11.01;76.85
37972;BME280;23794;48.234;8.344;2023-05-07T05:42:43;94202.06;;;11.08;77.25
37972;BME280;23794;48.234;8.344;2023-05-07T05:45:11;94198.00;;;11.27;77.14
37972;BME280;23794;48.234;8.344;2023-05-07T05:47:38;94198.28;;;11.40;77.16
37972;BME280;23794;48.234;8.344;2023-05-07T05:50:06;94201.31;;;11.49;77.06
37972;BME280;23794;48.234;8.344;2023-05-07T05:52:34;94203.53;;;11.61;77.06
37972;BME280;23794;48.234;8.344;2023-05-07T05:55:01;94198.28;;;11.78;76.63
37972;BME280;23794;48.234;8.344;2023-05-07T05:57:28;94201.66;;;11.89;76.32
37972;BME280;23794;48.234;8.344;2023-05-07T05:59:55;94206.75;;;11.91;76.53
37972;BME280;23794;48.234;8.344;2023-05-07T06:02:23;94209.06;;;11.96;75.79
37972;BME280;23794;48.234;8.344;2023-05-07T06:04:50;94206.19;;;12.07;75.92
37972;BME280;23794;48.234;8.344;2023-05-07T06:07:19;94205.63;;;12.19;75.14
37972;BME280;23794;48.234;8.344;2023-05-07T06:09:45;94206.75;;;12.25;74.39
37972;BME280;23794;48.234;8.344;2023-05-07T06:12:12;94213.28;;;12.35;75.09
37972;BME280;23794;48.234;8.344;2023-05-07T06:14:39;94212.38;;;12.45;75.11
37972;BME280;23794;48.234;8.344;2023-05-07T06:17:06;94211.16;;;12.50;75.36
37972;BME280;23794;48.234;8.344;2023-05-07T06:19:33;94213.75;;;12.61;74.95
37972;BME280;23794;48.234;8.344;2023-05-07T06:22:00;94214.75;;;12.74;75.08
37972;BME280;23794;48.234;8.344;2023-05-07T06:24:30;94213.91;;;12.77;75.38
37972;BME280;23794;48.234;8.344;2023-05-07T06:26:56;94214.72;;;12.78;75.27
37972;BME280;23794;48.234;8.344;2023-05-07T06:29:26;94217.69;;;12.87;74.68
37972;BME280;23794;48.234;8.344;2023-05-07T06:31:53;94220.66;;;13.00;74.00
37972;BME280;23794;48.234;8.344;2023-05-07T06:34:21;94226.25;;;12.93;73.55
37972;BME280;23794;48.234;8.344;2023-05-07T06:36:48;94227.28;;;13.03;73.24
37972;BME280;23794;48.234;8.344;2023-05-07T06:39:25;94228.72;;;13.11;72.56
37972;BME280;23794;48.234;8.344;2023-05-07T06:41:51;94224.31;;;13.17;72.06
37972;BME280;23794;48.234;8.344;2023-05-07T06:44:25;94213.56;;;13.26;71.90
37972;BME280;23794;48.234;8.344;2023-05-07T06:47:05;94218.13;;;13.37;72.03
37972;BME280;23794;48.234;8.344;2023-05-07T06:49:33;94220.56;;;13.55;72.30
37972;BME280;23794;48.234;8.344;2023-05-07T06:52:00;94222.31;;;13.69;72.00
37972;BME280;23794;48.234;8.344;2023-05-07T06:54:26;94222.53;;;13.78;72.47
37972;BME280;23794;48.234;8.344;2023-05-07T06:56:53;94229.28;;;13.73;72.25
37972;BME280;23794;48.234;8.344;2023-05-07T06:59:21;94224.53;;;13.98;71.97
37972;BME280;23794;48.234;8.344;2023-05-07T07:01:48;94221.22;;;14.27;70.87
37972;BME280;23794;48.234;8.344;2023-05-07T07:04:15;94214.06;;;14.49;69.30
37972;BME280;23794;48.234;8.344;2023-05-07T07:06:46;94224.25;;;14.69;69.16
37972;BME280;23794;48.234;8.344;2023-05-07T07:09:13;94224.63;;;14.71;69.24
37972;BME280;23794;48.234;8.344;2023-05-07T07:11:40;94231.75;;;14.89;68.57
37972;BME280;23794;48.234;8.344;2023-05-07T07:14:07;94218.56;;;14.96;67.84
37972;BME280;23794;48.234;8.344;2023-05-07T07:16:40;94230.38;;;15.13;67.52
37972;BME280;23794;48.234;8.344;2023-05-07T07:19:07;94227.56;;;15.34;67.56
37972;BME280;23794;48.234;8.344;2023-05-07T07:21:34;94225.72;;;15.60;66.96
37972;BME280;23794;48.234;8.344;2023-05-07T07:24:01;94218.53;;;15.95;66.08
37972;BME280;23794;48.234;8.344;2023-05-07T07:26:28;94221.50;;;16.31;65.08
37972;BME280;23794;48.234;8.344;2023-05-07T07:28:55;94222.56;;;16.07;63.99
37972;BME280;23794;48.234;8.344;2023-05-07T07:31:22;94223.00;;;15.89;64.89
37972;BME280;23794;48.234;8.344;2023-05-07T07:33:50;94224.59;;;15.74;65.85
37972;BME280;23794;48.234;8.344;2023-05-07T07:36:18;94223.72;;;15.77;66.00
37972;BME280;23794;48.234;8.344;2023-05-07T07:38:45;94214.22;;;15.94;64.38
37972;BME280;23794;48.234;8.344;2023-05-07T07:41:13;94216.53;;;16.25;63.73
37972;BME280;23794;48.234;8.344;2023-05-07T07:43:40;94209.66;;;16.72;62.50
37972;BME280;23794;48.234;8.344;2023-05-07T07:46:07;94212.78;;;16.87;62.73
37972;BME280;23794;48.234;8.344;2023-05-07T07:48:34;94208.03;;;17.01;62.03
37972;BME280;23794;48.234;8.344;2023-05-07T07:51:01;94217.97;;;16.85;62.68
37972;BME280;23794;48.234;8.344;2023-05-07T07:53:28;94216.84;;;16.70;62.04
37972;BME280;23794;48.234;8.344;2023-05-07T07:55:55;94217.63;;;16.70;62.81
37972;BME280;23794;48.234;8.344;2023-05-07T07:58:27;94222.81;;;16.94;63.31
37972;BME280;23794;48.234;8.344;2023-05-07T08:00:54;94219.00;;;17.17;63.00
37972;BME280;23794;48.234;8.344;2023-05-07T08:03:23;94225.75;;;17.16;62.33
37972;BME280;23794;48.234;8.344;2023-05-07T08:05:53;94228.84;;;17.05;61.47
37972;BME280;23794;48.234;8.344;2023-05-07T08:08:21;94229.94;;;16.82;62.90
37972;BME280;23794;48.234;8.344;2023-05-07T08:10:48;94228.25;;;16.72;64.00
37972;BME280;23794;48.234;8.344;2023-05-07T08:13:24;94223.59;;;16.69;63.96
37972;BME280;23794;48.234;8.344;2023-05-07T08:15:52;94223.25;;;16.80;63.69
37972;BME280;23794;48.234;8.344;2023-05-07T08:18:19;94223.66;;;17.08;63.18
37972;BME280;23794;48.234;8.344;2023-05-07T08:20:46;94217.78;;;17.18;61.63
37972;BME280;23794;48.234;8.344;2023-05-07T08:23:18;94218.75;;;17.37;61.26
37972;BME280;23794;48.234;8.344;2023-05-07T08:25:45;94223.25;;;17.57;62.55
37972;BME280;23794;48.234;8.344;2023-05-07T08:28:12;94223.22;;;17.70;58.50
37972;BME280;23794;48.234;8.344;2023-05-07T08:30:40;94225.31;;;17.66;56.75
37972;BME280;23794;48.234;8.344;2023-05-07T08:33:08;94221.22;;;17.71;57.33
37972;BME280;23794;48.234;8.344;2023-05-07T08:35:36;94221.75;;;17.91;60.00
37972;BME280;23794;48.234;8.344;2023-05-07T08:38:05;94229.16;;;17.81;58.87
37972;BME280;23794;48.234;8.344;2023-05-07T08:40:36;94229.00;;;17.63;58.66
37972;BME280;23794;48.234;8.344;2023-05-07T08:43:07;94226.59;;;17.52;58.80
37972;BME280;23794;48.234;8.344;2023-05-07T08:45:39;94232.13;;;17.65;58.66
37972;BME280;23794;48.234;8.344;2023-05-07T08:48:14;94225.94;;;17.96;57.89
37972;BME280;23794;48.234;8.344;2023-05-07T08:50:44;94225.22;;;18.18;58.04
37972;BME280;23794;48.234;8.344;2023-05-07T08:53:11;94219.19;;;18.41;57.46
37972;BME280;23794;48.234;8.344;2023-05-07T08:55:39;94220.34;;;18.75;56.50
37972;BME280;23794;48.234;8.344;2023-05-07T08:58:06;94222.59;;;18.90;55.83
37972;BME280;23794;48.234;8.344;2023-05-07T09:00:37;94227.63;;;19.14;55.46
37972;BME280;23794;48.234;8.344;2023-05-07T09:03:07;94220.16;;;19.33;54.87
37972;BME280;23794;48.234;8.344;2023-05-07T09:05:35;94221.72;;;19.43;55.08
37972;BME280;23794;48.234;8.344;2023-05-07T09:08:06;94219.44;;;19.60;54.33
37972;BME280;23794;48.234;8.344;2023-05-07T09:10:35;94215.13;;;19.59;53.20
37972;BME280;23794;48.234;8.344;2023-05-07T09:13:03;94211.56;;;19.58;54.32
37972;BME280;23794;48.234;8.344;2023-05-07T09:15:30;94207.25;;;19.67;53.76
37972;BME280;23794;48.234;8.344;2023-05-07T09:18:01;94212.25;;;19.90;53.72
37972;BME280;23794;48.234;8.344;2023-05-07T09:20:32;94201.13;;;19.90;53.68
37972;BME280;23794;48.234;8.344;2023-05-07T09:23:00;94197.25;;;19.69;52.49
37972;BME280;23794;48.234;8.344;2023-05-07T09:25:29;94196.28;;;19.63;53.62
37972;BME280;23794;48.234;8.344;2023-05-07T09:27:59;94206.66;;;19.72;53.75
37972;BME280;23794;48.234;8.344;2023-05-07T09:30:30;94204.44;;;19.48;52.09
37972;BME280;23794;48.234;8.344;2023-05-07T09:33:00;94209.84;;;19.52;52.48
37972;BME280;23794;48.234;8.344;2023-05-07T09:35:28;94204.84;;;19.87;52.64
37972;BME280;23794;48.234;8.344;2023-05-07T09:38:00;94207.16;;;20.08;52.19
37972;BME280;23794;48.234;8.344;2023-05-07T09:40:31;94206.69;;;19.90;50.64
37972;BME280;23794;48.234;8.344;2023-05-07T09:43:10;94208.25;;;19.92;51.94
37972;BME280;23794;48.234;8.344;2023-05-07T09:45:42;94202.38;;;20.17;49.72
37972;BME280;23794;48.234;8.344;2023-05-07T09:48:10;94200.66;;;20.38;49.46
37972;BME280;23794;48.234;8.344;2023-05-07T09:50:49;94203.28;;;20.42;48.81
37972;BME280;23794;48.234;8.344;2023-05-07T09:53:22;94192.28;;;20.48;49.16
37972;BME280;23794;48.234;8.344;2023-05-07T09:55:50;94184.41;;;20.56;49.01
37972;BME280;23794;48.234;8.344;2023-05-07T09:58:18;94183.09;;;20.94;50.02
37972;BME280;23794;48.234;8.344;2023-05-07T10:00:49;94182.13;;;21.06;47.64
37972;BME280;23794;48.234;8.344;2023-05-07T10:03:18;94177.22;;;21.25;48.31
37972;BME280;23794;48.234;8.344;2023-05-07T10:05:54;94174.00;;;21.51;47.83
37972;BME280;23794;48.234;8.344;2023-05-07T10:08:22;94170.22;;;21.63;47.11
37972;BME280;23794;48.234;8.344;2023-05-07T10:10:52;94163.59;;;21.61;45.90
37972;BME280;23794;48.234;8.344;2023-05-07T10:13:22;94168.56;;;21.57;46.49
37972;BME280;23794;48.234;8.344;2023-05-07T10:15:54;94165.88;;;21.38;44.81
37972;BME280;23794;48.234;8.344;2023-05-07T10:18:24;94164.19;;;21.41;45.75
37972;BME280;23794;48.234;8.344;2023-05-07T10:21:21;94165.59;;;21.60;45.87
37972;BME280;23794;48.234;8.344;2023-05-07T10:24:25;94165.41;;;21.40;45.93
37972;BME280;23794;48.234;8.344;2023-05-07T10:26:53;94165.25;;;21.43;46.36
37972;BME280;23794;48.234;8.344;2023-05-07T10:29:36;94159.00;;;21.48;45.75
37972;BME280;23794;48.234;8.344;2023-05-07T10:34:41;94158.75;;;21.37;47.28
37972;BME280;23794;48.234;8.344;2023-05-07T10:37:11;94149.25;;;21.20;47.62
37972;BME280;23794;48.234;8.344;2023-05-07T10:39:39;94155.66;;;21.11;48.06
37972;BME280;23794;48.234;8.344;2023-05-07T10:42:10;94143.78;;;21.01;48.08
37972;BME280;23794;48.234;8.344;2023-05-07T10:44:41;94153.25;;;20.94;49.28
37972;BME280;23794;48.234;8.344;2023-05-07T10:47:14;94148.72;;;20.63;48.06
37972;BME280;23794;48.234;8.344;2023-05-07T10:52:21;94169.91;;;20.42;48.88
37972;BME280;23794;48.234;8.344;2023-05-07T10:55:19;94186.63;;;20.24;48.72
37972;BME280;23794;48.234;8.344;2023-05-07T11:01:07;94208.84;;;20.05;50.12
37972;BME280;23794;48.234;8.344;2023-05-07T11:04:14;94204.53;;;19.85;48.94
37972;BME280;23794;48.234;8.344;2023-05-07T11:15:11;94233.03;;;19.17;52.56
37972;BME280;23794;48.234;8.344;2023-05-07T11:17:56;94242.84;;;19.00;52.79
37972;BME280;23794;48.234;8.344;2023-05-07T11:20:45;94255.50;;;18.56;55.54
37972;BME280;23794;48.234;8.344;2023-05-07T11:26:40;94279.34;;;18.09;57.24
37972;BME280;23794;48.234;8.344;2023-05-07T11:29:15;94281.81;;;17.94;57.84
37972;BME280;23794;48.234;8.344;2023-05-07T11:31:51;94278.75;;;17.66;58.97
37972;BME280;23794;48.234;8.344;2023-05-07T11:34:22;94286.94;;;17.44;59.10
37972;BME280;23794;48.234;8.344;2023-05-07T11:36:51;94297.59;;;17.20;59.75
37972;BME280;23794;48.234;8.344;2023-05-07T11:39:32;94284.75;;;17.00;59.74
37972;BME280;23794;48.234;8.344;2023-05-07T11:42:00;94275.75;;;16.96;59.37
37972;BME280;23794;48.234;8.344;2023-05-07T11:44:43;94284.34;;;16.85;62.99
37972;BME280;23794;48.234;8.344;2023-05-07T11:47:10;94292.81;;;16.65;64.90
37972;BME280;23794;48.234;8.344;2023-05-07T11:49:37;94290.41;;;16.38;68.89
37972;BME280;23794;48.234;8.344;2023-05-07T11:52:04;94296.72;;;16.09;66.55
37972;BME280;23794;48.234;8.344;2023-05-07T11:54:36;94293.25;;;15.88;67.49
37972;BME280;23794;48.234;8.344;2023-05-07T11:57:03;94297.69;;;15.53;68.00
37972;BME280;23794;48.234;8.344;2023-05-07T11:59:30;94285.00;;;15.22;69.38
37972;BME280;23794;48.234;8.344;2023-05-07T12:01:57;94295.50;;;14.91;69.89
37972;BME280;23794;48.234;8.344;2023-05-07T12:04:24;94294.31;;;14.72;69.47
37972;BME280;23794;48.234;8.344;2023-05-07T12:06:54;94295.03;;;14.56;72.05
37972;BME280;23794;48.234;8.344;2023-05-07T12:09:22;94298.56;;;14.36;70.57
37972;BME280;23794;48.234;8.344;2023-05-07T12:11:49;94298.56;;;14.16;71.32
37972;BME280;23794;48.234;8.344;2023-05-07T12:14:15;94297.69;;;13.99;70.55
37972;BME280;23794;48.234;8.344;2023-05-07T12:16:43;94299.00;;;13.67;72.35
37972;BME280;23794;48.234;8.344;2023-05-07T12:19:11;94293.75;;;13.25;73.09
37972;BME280;23794;48.234;8.344;2023-05-07T12:21:41;94292.03;;;13.35;72.90
37972;BME280;23794;48.234;8.344;2023-05-07T12:24:08;94295.91;;;13.37;73.76
37972;BME280;23794;48.234;8.344;2023-05-07T12:26:38;94287.50;;;13.21;72.94
37972;BME280;23794;48.234;8.344;2023-05-07T12:29:07;94288.50;;;13.07;74.56
37972;BME280;23794;48.234;8.344;2023-05-07T12:31:33;94292.06;;;13.04;76.87
37972;BME280;23794;48.234;8.344;2023-05-07T12:34:00;94291.50;;;13.16;75.64
37972;BME280;23794;48.234;8.344;2023-05-07T12:36:36;94266.16;;;13.05;75.85
37972;BME280;23794;48.234;8.344;2023-05-07T12:39:04;94249.22;;;12.79;76.79
37972;BME280;23794;48.234;8.344;2023-05-07T12:41:36;94238.09;;;12.62;77.40
37972;BME280;23794;48.234;8.344;2023-05-07T12:44:04;94234.50;;;12.66;78.59
37972;BME280;23794;48.234;8.344;2023-05-07T12:46:31;94257.38;;;12.86;78.78
37972;BME280;23794;48.234;8.344;2023-05-07T12:48:58;94283.72;;;13.11;78.63
37972;BME280;23794;48.234;8.344;2023-05-07T12:51:25;94294.16;;;13.23;76.75
37972;BME280;23794;48.234;8.344;2023-05-07T12:53:55;94311.38;;;13.55;75.56
37972;BME280;23794;48.234;8.344;2023-05-07T12:56:23;94306.47;;;13.90;76.53
37972;BME280;23794;48.234;8.344;2023-05-07T12:58:49;94309.00;;;14.25;76.03
37972;BME280;23794;48.234;8.344;2023-05-07T13:01:16;94309.47;;;14.63;74.41
37972;BME280;23794;48.234;8.344;2023-05-07T13:03:48;94313.69;;;14.88;75.19
37972;BME280;23794;48.234;8.344;2023-05-07T13:06:17;94315.91;;;15.13;73.11
37972;BME280;23794;48.234;8.344;2023-05-07T13:08:43;94316.81;;;15.43;72.72
37972;BME280;23794;48.234;8.344;2023-05-07T13:11:11;94328.69;;;15.24;70.84
37972;BME280;23794;48.234;8.344;2023-05-07T13:13:39;94338.34;;;15.15;71.36
37972;BME280;23794;48.234;8.344;2023-05-07T13:16:08;94338.72;;;15.34;71.66
37972;BME280;23794;48.234;8.344;2023-05-07T13:18:36;94342.41;;;15.27;71.84
37972;BME280;23794;48.234;8.344;2023-05-07T13:21:03;94354.44;;;15.17;69.58
37972;BME280;23794;48.234;8.344;2023-05-07T13:23:29;94349.72;;;15.18;69.78
37972;BME280;23794;48.234;8.344;2023-05-07T13:25:56;94343.88;;;15.32;70.60
37972;BME280;23794;48.234;8.344;2023-05-07T13:28:26;94330.81;;;15.53;69.93
37972;BME280;23794;48.234;8.344;2023-05-07T13:30:53;94322.97;;;15.68;72.09
37972;BME280;23794;48.234;8.344;2023-05-07T13:33:21;94311.56;;;15.82;70.31
37972;BME280;23794;48.234;8.344;2023-05-07T13:35:47;94322.69;;;16.11;71.19